sensor_id;sensor_type;location;lat;lon;timestamp;P1;durP1;ratioP1;P2;durP2;ratioP2
52918;SDS011;38793;52.690;6.812;2023-02-19T00:01:18;38.03;;;21.42;;
52918;SDS011;38793;52.690;6.812;2023-02-19T00:03:47;41.38;;;23.33;;
52918;SDS011;38793;52.690;6.812;2023-02-19T00:06:17;53.00;;;26.85;;
52918;SDS011;38793;52.690;6.812;2023-02-19T00:08:44;42.65;;;23.80;;
52918;SDS011;38793;52.690;6.812;2023-02-19T00:11:11;41.95;;;23.60;;
52918;SDS011;38793;52.690;6.812;2023-02-19T00:13:43;26.75;;;17.83;;
52918;SDS011;38793;52.690;6.812;2023-02-19T00:16:29;38.33;;;19.27;;
52918;SDS011;38793;52.690;6.812;2023-02-19T00:18:55;32.88;;;20.00;;
52918;SDS011;38793;52.690;6.812;2023-02-19T00:21:23;33.50;;;20.30;;
52918;SDS011;38793;52.690;6.812;2023-02-19T00:23:53;32.50;;;18.27;;
52918;SDS011;38793;52.690;6.812;2023-02-19T00:26:20;37.28;;;19.67;;
52918;SDS011;38793;52.690;6.812;2023-02-19T00:28:46;38.40;;;19.27;;
52918;SDS011;38793;52.690;6.812;2023-02-19T00:31:17;34.67;;;19.58;;
52918;SDS011;38793;52.690;6.812;2023-02-19T00:33:51;32.08;;;18.25;;
52918;SDS011;38793;52.690;6.812;2023-02-19T00:36:18;36.00;;;19.05;;
52918;SDS011;38793;52.690;6.812;2023-02-19T00:38:44;28.23;;;18.15;;
52918;SDS011;38793;52.690;6.812;2023-02-19T00:43:49;36.70;;;19.48;;
52918;SDS011;38793;52.690;6.812;2023-02-19T00:46:20;37.53;;;20.80;;
52918;SDS011;38793;52.690;6.812;2023-02-19T00:48:50;38.38;;;20.02;;
52918;SDS011;38793;52.690;6.812;2023-02-19T00:51:20;37.67;;;20.27;;
52918;SDS011;38793;52.690;6.812;2023-02-19T00:53:47;43.83;;;22.17;;
52918;SDS011;38793;52.690;6.812;2023-02-19T00:56:13;41.33;;;21.85;;
52918;SDS011;38793;52.690;6.812;2023-02-19T00:58:39;43.88;;;22.02;;
52918;SDS011;38793;52.690;6.812;2023-02-19T01:01:05;42.47;;;21.23;;
52918;SDS011;38793;52.690;6.812;2023-02-19T01:03:32;44.35;;;20.67;;
52918;SDS011;38793;52.690;6.812;2023-02-19T01:05:58;39.35;;;20.80;;
52918;SDS011;38793;52.690;6.812;2023-02-19T01:08:24;44.72;;;23.02;;
52918;SDS011;38793;52.690;6.812;2023-02-19T01:10:50;43.67;;;22.25;;
52918;SDS011;38793;52.690;6.812;2023-02-19T01:13:16;45.37;;;21.97;;
52918;SDS011;38793;52.690;6.812;2023-02-19T01:15:42;48.40;;;21.13;;
52918;SDS011;38793;52.690;6.812;2023-02-19T01:18:07;44.80;;;22.25;;
52918;SDS011;38793;52.690;6.812;2023-02-19T01:20:33;34.50;;;20.83;;
52918;SDS011;38793;52.690;6.812;2023-02-19T01:22:59;35.00;;;17.90;;
52918;SDS011;38793;52.690;6.812;2023-02-19T01:25:24;48.33;;;20.00;;
52918;SDS011;38793;52.690;6.812;2023-02-19T01:27:50;39.50;;;17.10;;
52918;SDS011;38793;52.690;6.812;2023-02-19T01:30:15;39.93;;;18.87;;
52918;SDS011;38793;52.690;6.812;2023-02-19T01:32:41;47.60;;;17.25;;
52918;SDS011;38793;52.690;6.812;2023-02-19T01:35:07;33.67;;;16.77;;
52918;SDS011;38793;52.690;6.812;2023-02-19T01:37:32;39.43;;;16.73;;
52918;SDS011;38793;52.690;6.812;2023-02-19T01:39:58;36.37;;;14.53;;
52918;SDS011;38793;52.690;6.812;2023-02-19T01:42:23;39.07;;;14.17;;
52918;SDS011;38793;52.690;6.812;2023-02-19T01:48:15;37.03;;;15.43;;
52918;SDS011;38793;52.690;6.812;2023-02-19T01:50:49;36.05;;;14.00;;
52918;SDS011;38793;52.690;6.812;2023-02-19T01:53:19;32.17;;;13.57;;
52918;SDS011;38793;52.690;6.812;2023-02-19T01:55:48;26.63;;;14.07;;
52918;SDS011;38793;52.690;6.812;2023-02-19T01:58:18;38.05;;;14.48;;
52918;SDS011;38793;52.690;6.812;2023-02-19T02:00:44;35.05;;;12.48;;
52918;SDS011;38793;52.690;6.812;2023-02-19T02:03:10;28.37;;;13.30;;
52918;SDS011;38793;52.690;6.812;2023-02-19T02:05:55;31.05;;;12.30;;
52918;SDS011;38793;52.690;6.812;2023-02-19T02:08:25;32.40;;;12.27;;
52918;SDS011;38793;52.690;6.812;2023-02-19T02:11:11;28.45;;;10.80;;
52918;SDS011;38793;52.690;6.812;2023-02-19T02:13:36;30.35;;;11.43;;
52918;SDS011;38793;52.690;6.812;2023-02-19T02:36:02;23.95;;;11.63;;
52918;SDS011;38793;52.690;6.812;2023-02-19T02:38:32;22.67;;;9.20;;
52918;SDS011;38793;52.690;6.812;2023-02-19T02:41:01;28.17;;;10.80;;
52918;SDS011;38793;52.690;6.812;2023-02-19T02:43:29;16.45;;;9.02;;
52918;SDS011;38793;52.690;6.812;2023-02-19T02:45:54;17.73;;;9.13;;
52918;SDS011;38793;52.690;6.812;2023-02-19T02:48:22;17.75;;;9.50;;
52918;SDS011;38793;52.690;6.812;2023-02-19T02:53:50;19.38;;;9.30;;
52918;SDS011;38793;52.690;6.812;2023-02-19T02:56:39;12.80;;;8.40;;
52918;SDS011;38793;52.690;6.812;2023-02-19T02:59:07;16.80;;;8.82;;
52918;SDS011;38793;52.690;6.812;2023-02-19T03:01:42;17.88;;;8.05;;
52918;SDS011;38793;52.690;6.812;2023-02-19T03:04:38;15.80;;;7.88;;
52918;SDS011;38793;52.690;6.812;2023-02-19T03:07:38;22.88;;;8.90;;
52918;SDS011;38793;52.690;6.812;2023-02-19T03:10:10;18.77;;;8.30;;
52918;SDS011;38793;52.690;6.812;2023-02-19T03:12:38;20.10;;;8.35;;
52918;SDS011;38793;52.690;6.812;2023-02-19T03:15:27;15.23;;;7.90;;
52918;SDS011;38793;52.690;6.812;2023-02-19T03:18:19;10.52;;;6.47;;
52918;SDS011;38793;52.690;6.812;2023-02-19T03:21:05;15.60;;;6.90;;
52918;SDS011;38793;52.690;6.812;2023-02-19T03:23:32;15.63;;;6.50;;
52918;SDS011;38793;52.690;6.812;2023-02-19T03:26:19;19.30;;;8.23;;
52918;SDS011;38793;52.690;6.812;2023-02-19T03:28:46;15.00;;;7.22;;
52918;SDS011;38793;52.690;6.812;2023-02-19T03:31:32;12.07;;;6.15;;
52918;SDS011;38793;52.690;6.812;2023-02-19T03:34:02;11.98;;;6.35;;
52918;SDS011;38793;52.690;6.812;2023-02-19T03:36:34;9.68;;;5.82;;
52918;SDS011;38793;52.690;6.812;2023-02-19T03:39:07;9.85;;;5.80;;
52918;SDS011;38793;52.690;6.812;2023-02-19T03:44:22;15.02;;;6.10;;
52918;SDS011;38793;52.690;6.812;2023-02-19T03:46:53;11.70;;;6.45;;
52918;SDS011;38793;52.690;6.812;2023-02-19T03:52:08;8.37;;;6.03;;
52918;SDS011;38793;52.690;6.812;2023-02-19T03:54:38;17.27;;;6.82;;
52918;SDS011;38793;52.690;6.812;2023-02-19T03:57:13;16.15;;;7.72;;
52918;SDS011;38793;52.690;6.812;2023-02-19T03:59:47;17.98;;;7.82;;
52918;SDS011;38793;52.690;6.812;2023-02-19T04:02:23;15.15;;;8.00;;
52918;SDS011;38793;52.690;6.812;2023-02-19T04:04:56;17.42;;;8.18;;
52918;SDS011;38793;52.690;6.812;2023-02-19T04:07:27;14.45;;;7.53;;
52918;SDS011;38793;52.690;6.812;2023-02-19T04:09:56;15.98;;;7.57;;
52918;SDS011;38793;52.690;6.812;2023-02-19T04:12:22;14.80;;;7.47;;
52918;SDS011;38793;52.690;6.812;2023-02-19T04:14:58;14.82;;;7.97;;
52918;SDS011;38793;52.690;6.812;2023-02-19T04:17:32;14.23;;;7.60;;
52918;SDS011;38793;52.690;6.812;2023-02-19T04:20:02;17.20;;;9.30;;
52918;SDS011;38793;52.690;6.812;2023-02-19T04:22:32;19.05;;;7.80;;
52918;SDS011;38793;52.690;6.812;2023-02-19T04:24:59;16.95;;;7.95;;
52918;SDS011;38793;52.690;6.812;2023-02-19T04:27:24;16.83;;;7.93;;
52918;SDS011;38793;52.690;6.812;2023-02-19T04:29:50;12.95;;;7.82;;
52918;SDS011;38793;52.690;6.812;2023-02-19T04:32:16;17.73;;;8.60;;
52918;SDS011;38793;52.690;6.812;2023-02-19T04:34:42;13.70;;;8.07;;
52918;SDS011;38793;52.690;6.812;2023-02-19T04:37:07;19.53;;;9.87;;
52918;SDS011;38793;52.690;6.812;2023-02-19T04:39:33;14.40;;;8.13;;
52918;SDS011;38793;52.690;6.812;2023-02-19T04:41:59;21.85;;;9.25;;
52918;SDS011;38793;52.690;6.812;2023-02-19T04:44:24;22.30;;;10.47;;
52918;SDS011;38793;52.690;6.812;2023-02-19T04:46:50;17.73;;;9.47;;
52918;SDS011;38793;52.690;6.812;2023-02-19T04:49:15;18.03;;;10.03;;
52918;SDS011;38793;52.690;6.812;2023-02-19T04:51:41;27.97;;;11.33;;
52918;SDS011;38793;52.690;6.812;2023-02-19T04:54:07;22.03;;;10.40;;
52918;SDS011;38793;52.690;6.812;2023-02-19T04:56:32;24.48;;;10.40;;
52918;SDS011;38793;52.690;6.812;2023-02-19T04:58:58;18.97;;;9.77;;
52918;SDS011;38793;52.690;6.812;2023-02-19T05:01:24;15.52;;;8.60;;
52918;SDS011;38793;52.690;6.812;2023-02-19T05:03:50;7.88;;;4.50;;
52918;SDS011;38793;52.690;6.812;2023-02-19T05:06:16;6.03;;;2.83;;
52918;SDS011;38793;52.690;6.812;2023-02-19T05:08:41;2.75;;;2.53;;
52918;SDS011;38793;52.690;6.812;2023-02-19T05:11:08;2.50;;;2.30;;
52918;SDS011;38793;52.690;6.812;2023-02-19T05:13:34;1.70;;;1.60;;
52918;SDS011;38793;52.690;6.812;2023-02-19T05:16:02;2.00;;;1.80;;
52918;SDS011;38793;52.690;6.812;2023-02-19T05:18:30;2.30;;;1.98;;
52918;SDS011;38793;52.690;6.812;2023-02-19T05:20:56;2.28;;;2.08;;
52918;SDS011;38793;52.690;6.812;2023-02-19T05:23:23;2.58;;;2.38;;
52918;SDS011;38793;52.690;6.812;2023-02-19T05:28:15;2.53;;;2.28;;
52918;SDS011;38793;52.690;6.812;2023-02-19T05:30:41;2.47;;;2.28;;
52918;SDS011;38793;52.690;6.812;2023-02-19T05:33:15;2.78;;;2.58;;
52918;SDS011;38793;52.690;6.812;2023-02-19T05:35:46;2.38;;;1.90;;
52918;SDS011;38793;52.690;6.812;2023-02-19T05:38:17;2.20;;;2.00;;
52918;SDS011;38793;52.690;6.812;2023-02-19T05:40:44;2.22;;;1.42;;
52918;SDS011;38793;52.690;6.812;2023-02-19T05:45:35;2.28;;;0.60;;
52918;SDS011;38793;52.690;6.812;2023-02-19T05:48:02;1.00;;;0.50;;
52918;SDS011;38793;52.690;6.812;2023-02-19T05:52:54;1.20;;;0.52;;
52918;SDS011;38793;52.690;6.812;2023-02-19T05:55:20;1.10;;;0.60;;
52918;SDS011;38793;52.690;6.812;2023-02-19T05:57:46;2.25;;;0.50;;
52918;SDS011;38793;52.690;6.812;2023-02-19T06:00:13;1.60;;;0.60;;
52918;SDS011;38793;52.690;6.812;2023-02-19T06:02:42;1.42;;;0.63;;
52918;SDS011;38793;52.690;6.812;2023-02-19T06:05:08;3.03;;;0.50;;
52918;SDS011;38793;52.690;6.812;2023-02-19T06:07:34;1.15;;;0.80;;
52918;SDS011;38793;52.690;6.812;2023-02-19T06:10:00;1.30;;;0.70;;
52918;SDS011;38793;52.690;6.812;2023-02-19T06:12:26;0.60;;;0.40;;
52918;SDS011;38793;52.690;6.812;2023-02-19T06:14:52;1.00;;;0.80;;
52918;SDS011;38793;52.690;6.812;2023-02-19T06:17:17;0.90;;;0.57;;
52918;SDS011;38793;52.690;6.812;2023-02-19T06:19:43;2.92;;;0.80;;
52918;SDS011;38793;52.690;6.812;2023-02-19T06:22:09;1.30;;;0.80;;
52918;SDS011;38793;52.690;6.812;2023-02-19T06:24:34;1.27;;;1.17;;
52918;SDS011;38793;52.690;6.812;2023-02-19T06:27:04;1.98;;;1.15;;
52918;SDS011;38793;52.690;6.812;2023-02-19T06:29:38;1.23;;;1.08;;
52918;SDS011;38793;52.690;6.812;2023-02-19T06:32:04;1.50;;;1.00;;
52918;SDS011;38793;52.690;6.812;2023-02-19T06:34:31;1.92;;;1.48;;
52918;SDS011;38793;52.690;6.812;2023-02-19T06:36:58;2.38;;;1.65;;
52918;SDS011;38793;52.690;6.812;2023-02-19T06:39:24;3.28;;;1.83;;
52918;SDS011;38793;52.690;6.812;2023-02-19T06:41:50;3.22;;;2.17;;
52918;SDS011;38793;52.690;6.812;2023-02-19T06:44:15;2.60;;;1.87;;
52918;SDS011;38793;52.690;6.812;2023-02-19T06:46:41;5.05;;;3.33;;
52918;SDS011;38793;52.690;6.812;2023-02-19T06:49:06;3.38;;;2.60;;
52918;SDS011;38793;52.690;6.812;2023-02-19T06:51:32;3.30;;;3.00;;
52918;SDS011;38793;52.690;6.812;2023-02-19T06:53:58;4.07;;;2.78;;
52918;SDS011;38793;52.690;6.812;2023-02-19T06:56:27;2.53;;;2.20;;
52918;SDS011;38793;52.690;6.812;2023-02-19T06:58:55;4.78;;;1.92;;
52918;SDS011;38793;52.690;6.812;2023-02-19T07:01:23;3.00;;;2.35;;
52918;SDS011;38793;52.690;6.812;2023-02-19T07:03:49;2.53;;;1.65;;
52918;SDS011;38793;52.690;6.812;2023-02-19T07:06:16;2.05;;;1.20;;
52918;SDS011;38793;52.690;6.812;2023-02-19T07:11:08;1.88;;;1.48;;
52918;SDS011;38793;52.690;6.812;2023-02-19T07:13:34;2.80;;;1.43;;
52918;SDS011;38793;52.690;6.812;2023-02-19T07:16:01;2.80;;;1.20;;
52918;SDS011;38793;52.690;6.812;2023-02-19T07:18:29;4.05;;;1.20;;
52918;SDS011;38793;52.690;6.812;2023-02-19T07:23:27;2.90;;;1.80;;
52918;SDS011;38793;52.690;6.812;2023-02-19T07:25:53;1.63;;;1.03;;
52918;SDS011;38793;52.690;6.812;2023-02-19T07:28:18;3.57;;;1.57;;
52918;SDS011;38793;52.690;6.812;2023-02-19T07:30:44;2.13;;;1.53;;
52918;SDS011;38793;52.690;6.812;2023-02-19T07:33:09;2.00;;;1.47;;
52918;SDS011;38793;52.690;6.812;2023-02-19T07:35:35;3.33;;;2.17;;
52918;SDS011;38793;52.690;6.812;2023-02-19T07:38:01;2.53;;;1.83;;
52918;SDS011;38793;52.690;6.812;2023-02-19T07:40:26;2.00;;;1.60;;
52918;SDS011;38793;52.690;6.812;2023-02-19T07:42:52;3.13;;;1.47;;
52918;SDS011;38793;52.690;6.812;2023-02-19T07:45:17;2.50;;;1.80;;
52918;SDS011;38793;52.690;6.812;2023-02-19T07:47:43;3.53;;;2.27;;
52918;SDS011;38793;52.690;6.812;2023-02-19T07:50:08;4.73;;;1.93;;
52918;SDS011;38793;52.690;6.812;2023-02-19T07:52:34;2.80;;;2.07;;
52918;SDS011;38793;52.690;6.812;2023-02-19T07:54:59;2.80;;;1.37;;
52918;SDS011;38793;52.690;6.812;2023-02-19T07:57:28;3.57;;;2.60;;
52918;SDS011;38793;52.690;6.812;2023-02-19T07:59:55;4.38;;;2.85;;
52918;SDS011;38793;52.690;6.812;2023-02-19T08:02:21;3.10;;;2.22;;
52918;SDS011;38793;52.690;6.812;2023-02-19T08:05:05;4.20;;;2.72;;
52918;SDS011;38793;52.690;6.812;2023-02-19T08:07:31;4.63;;;2.05;;
52918;SDS011;38793;52.690;6.812;2023-02-19T08:10:01;4.47;;;3.08;;
52918;SDS011;38793;52.690;6.812;2023-02-19T08:12:56;4.10;;;2.97;;
52918;SDS011;38793;52.690;6.812;2023-02-19T08:15:40;4.55;;;3.35;;
52918;SDS011;38793;52.690;6.812;2023-02-19T08:18:06;4.03;;;2.77;;
52918;SDS011;38793;52.690;6.812;2023-02-19T08:20:32;4.32;;;3.25;;
52918;SDS011;38793;52.690;6.812;2023-02-19T08:22:58;6.20;;;3.70;;
52918;SDS011;38793;52.690;6.812;2023-02-19T08:25:23;7.37;;;4.07;;
52918;SDS011;38793;52.690;6.812;2023-02-19T08:27:49;6.15;;;2.35;;
52918;SDS011;38793;52.690;6.812;2023-02-19T08:30:15;3.47;;;2.63;;
52918;SDS011;38793;52.690;6.812;2023-02-19T08:32:41;5.13;;;2.53;;
52918;SDS011;38793;52.690;6.812;2023-02-19T08:35:06;5.63;;;2.60;;
52918;SDS011;38793;52.690;6.812;2023-02-19T08:37:32;7.83;;;3.83;;
52918;SDS011;38793;52.690;6.812;2023-02-19T08:39:58;3.40;;;2.93;;
52918;SDS011;38793;52.690;6.812;2023-02-19T08:42:29;6.10;;;3.60;;
52918;SDS011;38793;52.690;6.812;2023-02-19T08:44:54;7.22;;;2.72;;
52918;SDS011;38793;52.690;6.812;2023-02-19T08:47:20;4.00;;;2.67;;
52918;SDS011;38793;52.690;6.812;2023-02-19T08:49:46;5.63;;;2.57;;
52918;SDS011;38793;52.690;6.812;2023-02-19T08:52:11;4.07;;;3.37;;
52918;SDS011;38793;52.690;6.812;2023-02-19T08:54:37;6.67;;;2.63;;
52918;SDS011;38793;52.690;6.812;2023-02-19T08:57:02;4.70;;;2.67;;
52918;SDS011;38793;52.690;6.812;2023-02-19T08:59:29;4.00;;;2.78;;
52918;SDS011;38793;52.690;6.812;2023-02-19T09:01:57;5.47;;;3.03;;
52918;SDS011;38793;52.690;6.812;2023-02-19T09:04:23;3.35;;;2.25;;
52918;SDS011;38793;52.690;6.812;2023-02-19T09:06:48;2.47;;;1.93;;
52918;SDS011;38793;52.690;6.812;2023-02-19T09:09:14;2.80;;;2.00;;
52918;SDS011;38793;52.690;6.812;2023-02-19T09:11:40;2.90;;;2.17;;
52918;SDS011;38793;52.690;6.812;2023-02-19T09:14:05;2.50;;;1.58;;
52918;SDS011;38793;52.690;6.812;2023-02-19T09:16:34;4.60;;;2.30;;
52918;SDS011;38793;52.690;6.812;2023-02-19T09:19:01;4.53;;;2.05;;
52918;SDS011;38793;52.690;6.812;2023-02-19T09:21:27;2.85;;;1.60;;
52918;SDS011;38793;52.690;6.812;2023-02-19T09:23:53;4.73;;;2.00;;
52918;SDS011;38793;52.690;6.812;2023-02-19T09:26:18;2.53;;;1.90;;
52918;SDS011;38793;52.690;6.812;2023-02-19T09:28:44;2.90;;;1.43;;
52918;SDS011;38793;52.690;6.812;2023-02-19T09:31:11;4.50;;;2.47;;
52918;SDS011;38793;52.690;6.812;2023-02-19T09:33:41;4.75;;;1.75;;
52918;SDS011;38793;52.690;6.812;2023-02-19T09:36:08;2.40;;;1.17;;
52918;SDS011;38793;52.690;6.812;2023-02-19T09:38:34;1.75;;;0.82;;
52918;SDS011;38793;52.690;6.812;2023-02-19T09:41:04;5.87;;;1.27;;
52918;SDS011;38793;52.690;6.812;2023-02-19T09:43:31;2.45;;;1.13;;
52918;SDS011;38793;52.690;6.812;2023-02-19T09:48:47;2.20;;;1.20;;
52918;SDS011;38793;52.690;6.812;2023-02-19T09:51:13;4.07;;;1.05;;
52918;SDS011;38793;52.690;6.812;2023-02-19T09:53:41;11.05;;;2.38;;
52918;SDS011;38793;52.690;6.812;2023-02-19T09:56:10;3.22;;;0.93;;
52918;SDS011;38793;52.690;6.812;2023-02-19T09:58:40;1.60;;;1.08;;
52918;SDS011;38793;52.690;6.812;2023-02-19T10:01:11;3.70;;;0.93;;
52918;SDS011;38793;52.690;6.812;2023-02-19T10:03:38;2.28;;;0.82;;
52918;SDS011;38793;52.690;6.812;2023-02-19T10:06:10;1.35;;;0.75;;
52918;SDS011;38793;52.690;6.812;2023-02-19T10:08:40;1.88;;;0.90;;
52918;SDS011;38793;52.690;6.812;2023-02-19T10:11:10;11.23;;;1.45;;
52918;SDS011;38793;52.690;6.812;2023-02-19T10:13:40;1.95;;;0.60;;
52918;SDS011;38793;52.690;6.812;2023-02-19T10:16:19;1.73;;;0.65;;
52918;SDS011;38793;52.690;6.812;2023-02-19T10:18:48;1.13;;;0.60;;
52918;SDS011;38793;52.690;6.812;2023-02-19T10:21:18;1.05;;;0.70;;
52918;SDS011;38793;52.690;6.812;2023-02-19T10:23:47;0.85;;;0.65;;
52918;SDS011;38793;52.690;6.812;2023-02-19T10:26:15;1.02;;;0.40;;
52918;SDS011;38793;52.690;6.812;2023-02-19T10:28:41;1.17;;;0.47;;
52918;SDS011;38793;52.690;6.812;2023-02-19T10:31:14;1.80;;;0.93;;
52918;SDS011;38793;52.690;6.812;2023-02-19T10:38:50;0.93;;;0.50;;
52918;SDS011;38793;52.690;6.812;2023-02-19T10:41:17;0.70;;;0.50;;
52918;SDS011;38793;52.690;6.812;2023-02-19T10:46:31;0.90;;;0.45;;
52918;SDS011;38793;52.690;6.812;2023-02-19T10:49:41;2.15;;;0.82;;
52918;SDS011;38793;52.690;6.812;2023-02-19T10:51:48;0.80;;;0.38;;
52918;SDS011;38793;52.690;6.812;2023-02-19T10:56:43;0.50;;;0.30;;
52918;SDS011;38793;52.690;6.812;2023-02-19T10:59:13;0.75;;;0.30;;
52918;SDS011;38793;52.690;6.812;2023-02-19T11:02:01;1.13;;;0.32;;
52918;SDS011;38793;52.690;6.812;2023-02-19T11:04:38;2.63;;;0.50;;
52918;SDS011;38793;52.690;6.812;2023-02-19T11:07:12;1.13;;;0.60;;
52918;SDS011;38793;52.690;6.812;2023-02-19T11:09:41;0.90;;;0.47;;
52918;SDS011;38793;52.690;6.812;2023-02-19T11:12:09;1.42;;;0.50;;
52918;SDS011;38793;52.690;6.812;2023-02-19T11:14:47;0.82;;;0.50;;
52918;SDS011;38793;52.690;6.812;2023-02-19T11:17:46;5.35;;;0.40;;
52918;SDS011;38793;52.690;6.812;2023-02-19T11:20:12;3.33;;;0.30;;
52918;SDS011;38793;52.690;6.812;2023-02-19T11:22:41;0.82;;;0.30;;
52918;SDS011;38793;52.690;6.812;2023-02-19T11:32:54;0.63;;;0.27;;
52918;SDS011;38793;52.690;6.812;2023-02-19T11:35:21;0.80;;;0.30;;
52918;SDS011;38793;52.690;6.812;2023-02-19T11:37:56;1.33;;;0.30;;
52918;SDS011;38793;52.690;6.812;2023-02-19T11:40:27;1.30;;;0.43;;
52918;SDS011;38793;52.690;6.812;2023-02-19T11:54:39;0.57;;;0.30;;
52918;SDS011;38793;52.690;6.812;2023-02-19T12:16:18;1.08;;;0.40;;
52918;SDS011;38793;52.690;6.812;2023-02-19T12:21:45;2.60;;;0.33;;
52918;SDS011;38793;52.690;6.812;2023-02-19T12:27:00;2.88;;;0.10;;
52918;SDS011;38793;52.690;6.812;2023-02-19T12:32:29;0.98;;;0.10;;
52918;SDS011;38793;52.690;6.812;2023-02-19T12:35:29;1.00;;;0.30;;
52918;SDS011;38793;52.690;6.812;2023-02-19T12:38:15;1.23;;;0.20;;
52918;SDS011;38793;52.690;6.812;2023-02-19T12:41:15;2.25;;;0.20;;
52918;SDS011;38793;52.690;6.812;2023-02-19T12:43:44;1.15;;;0.20;;
52918;SDS011;38793;52.690;6.812;2023-02-19T12:46:25;0.90;;;0.20;;
52918;SDS011;38793;52.690;6.812;2023-02-19T12:48:56;0.70;;;0.10;;
52918;SDS011;38793;52.690;6.812;2023-02-19T12:54:18;1.33;;;0.10;;
52918;SDS011;38793;52.690;6.812;2023-02-19T12:57:05;0.70;;;0.10;;
52918;SDS011;38793;52.690;6.812;2023-02-19T13:02:25;0.22;;;0.10;;
52918;SDS011;38793;52.690;6.812;2023-02-19T13:05:00;0.63;;;0.25;;
52918;SDS011;38793;52.690;6.812;2023-02-19T13:12:57;1.08;;;0.40;;
52918;SDS011;38793;52.690;6.812;2023-02-19T13:15:35;0.73;;;0.20;;
52918;SDS011;38793;52.690;6.812;2023-02-19T13:18:12;1.05;;;0.40;;
52918;SDS011;38793;52.690;6.812;2023-02-19T13:20:58;0.50;;;0.20;;
52918;SDS011;38793;52.690;6.812;2023-02-19T13:23:29;0.95;;;0.20;;
52918;SDS011;38793;52.690;6.812;2023-02-19T13:31:57;0.60;;;0.10;;
52918;SDS011;38793;52.690;6.812;2023-02-19T13:37:31;0.90;;;0.10;;
52918;SDS011;38793;52.690;6.812;2023-02-19T13:39:59;3.83;;;0.20;;
52918;SDS011;38793;52.690;6.812;2023-02-19T13:42:40;0.52;;;0.35;;
52918;SDS011;38793;52.690;6.812;2023-02-19T13:45:06;1.27;;;0.20;;
52918;SDS011;38793;52.690;6.812;2023-02-19T13:50:24;0.43;;;0.20;;
52918;SDS011;38793;52.690;6.812;2023-02-19T13:52:53;0.73;;;0.20;;
52918;SDS011;38793;52.690;6.812;2023-02-19T14:01:07;0.90;;;0.17;;
52918;SDS011;38793;52.690;6.812;2023-02-19T14:06:04;0.82;;;0.22;;
52918;SDS011;38793;52.690;6.812;2023-02-19T14:11:12;0.40;;;0.30;;
52918;SDS011;38793;52.690;6.812;2023-02-19T14:13:58;2.05;;;0.57;;
52918;SDS011;38793;52.690;6.812;2023-02-19T14:16:31;14.20;;;0.90;;
52918;SDS011;38793;52.690;6.812;2023-02-19T14:19:14;1.65;;;0.28;;
52918;SDS011;38793;52.690;6.812;2023-02-19T14:22:00;1.85;;;0.20;;
52918;SDS011;38793;52.690;6.812;2023-02-19T14:24:25;0.90;;;0.20;;
52918;SDS011;38793;52.690;6.812;2023-02-19T14:26:51;1.40;;;0.30;;
52918;SDS011;38793;52.690;6.812;2023-02-19T14:29:20;1.17;;;0.50;;
52918;SDS011;38793;52.690;6.812;2023-02-19T14:31:45;2.90;;;0.50;;
52918;SDS011;38793;52.690;6.812;2023-02-19T14:34:15;1.67;;;0.40;;
52918;SDS011;38793;52.690;6.812;2023-02-19T14:36:47;0.50;;;0.38;;
52918;SDS011;38793;52.690;6.812;2023-02-19T14:39:23;0.52;;;0.32;;
52918;SDS011;38793;52.690;6.812;2023-02-19T14:42:01;1.85;;;0.35;;
52918;SDS011;38793;52.690;6.812;2023-02-19T14:44:57;2.17;;;0.40;;
52918;SDS011;38793;52.690;6.812;2023-02-19T14:47:26;3.92;;;0.50;;
52918;SDS011;38793;52.690;6.812;2023-02-19T14:57:45;1.63;;;0.30;;
52918;SDS011;38793;52.690;6.812;2023-02-19T15:00:46;1.55;;;0.40;;
52918;SDS011;38793;52.690;6.812;2023-02-19T15:03:20;2.17;;;0.60;;
52918;SDS011;38793;52.690;6.812;2023-02-19T15:06:00;0.73;;;0.43;;
52918;SDS011;38793;52.690;6.812;2023-02-19T15:08:28;1.75;;;0.40;;
52918;SDS011;38793;52.690;6.812;2023-02-19T15:10:58;1.60;;;0.57;;
52918;SDS011;38793;52.690;6.812;2023-02-19T15:13:27;1.20;;;1.00;;
52918;SDS011;38793;52.690;6.812;2023-02-19T15:15:54;1.23;;;0.40;;
52918;SDS011;38793;52.690;6.812;2023-02-19T15:18:22;1.48;;;0.93;;
52918;SDS011;38793;52.690;6.812;2023-02-19T15:20:50;1.48;;;0.30;;
52918;SDS011;38793;52.690;6.812;2023-02-19T15:23:22;2.75;;;0.52;;
52918;SDS011;38793;52.690;6.812;2023-02-19T15:25:49;1.95;;;0.50;;
52918;SDS011;38793;52.690;6.812;2023-02-19T15:31:03;1.27;;;0.35;;
52918;SDS011;38793;52.690;6.812;2023-02-19T15:33:31;2.05;;;0.50;;
52918;SDS011;38793;52.690;6.812;2023-02-19T15:36:03;1.77;;;0.60;;
52918;SDS011;38793;52.690;6.812;2023-02-19T15:38:30;8.80;;;1.55;;
52918;SDS011;38793;52.690;6.812;2023-02-19T15:40:59;6.72;;;0.75;;
52918;SDS011;38793;52.690;6.812;2023-02-19T15:43:44;4.57;;;1.03;;
52918;SDS011;38793;52.690;6.812;2023-02-19T15:46:21;2.80;;;0.40;;
52918;SDS011;38793;52.690;6.812;2023-02-19T15:48:58;1.02;;;0.30;;
52918;SDS011;38793;52.690;6.812;2023-02-19T15:51:35;1.83;;;0.30;;
52918;SDS011;38793;52.690;6.812;2023-02-19T15:54:08;1.83;;;0.52;;
52918;SDS011;38793;52.690;6.812;2023-02-19T15:56:42;0.88;;;0.63;;
52918;SDS011;38793;52.690;6.812;2023-02-19T16:01:48;8.10;;;0.63;;
52918;SDS011;38793;52.690;6.812;2023-02-19T16:04:14;1.23;;;0.65;;
52918;SDS011;38793;52.690;6.812;2023-02-19T16:06:49;0.45;;;0.30;;
52918;SDS011;38793;52.690;6.812;2023-02-19T16:09:27;2.58;;;0.65;;
52918;SDS011;38793;52.690;6.812;2023-02-19T16:12:02;0.55;;;0.20;;
52918;SDS011;38793;52.690;6.812;2023-02-19T16:14:42;1.10;;;0.45;;
52918;SDS011;38793;52.690;6.812;2023-02-19T16:17:17;1.53;;;0.50;;
52918;SDS011;38793;52.690;6.812;2023-02-19T16:19:54;1.75;;;0.30;;
52918;SDS011;38793;52.690;6.812;2023-02-19T16:22:25;0.65;;;0.30;;
52918;SDS011;38793;52.690;6.812;2023-02-19T16:24:56;1.08;;;0.40;;
52918;SDS011;38793;52.690;6.812;2023-02-19T16:30:07;2.97;;;0.35;;
52918;SDS011;38793;52.690;6.812;2023-02-19T16:35:50;0.93;;;0.30;;
52918;SDS011;38793;52.690;6.812;2023-02-19T16:38:19;1.63;;;0.63;;
52918;SDS011;38793;52.690;6.812;2023-02-19T16:41:03;1.25;;;0.40;;
52918;SDS011;38793;52.690;6.812;2023-02-19T16:43:40;3.50;;;0.68;;
52918;SDS011;38793;52.690;6.812;2023-02-19T16:46:08;2.90;;;0.40;;
52918;SDS011;38793;52.690;6.812;2023-02-19T16:48:35;1.35;;;0.28;;
52918;SDS011;38793;52.690;6.812;2023-02-19T16:51:03;0.80;;;0.28;;
52918;SDS011;38793;52.690;6.812;2023-02-19T16:53:30;0.60;;;0.50;;
52918;SDS011;38793;52.690;6.812;2023-02-19T16:55:57;1.17;;;0.55;;
52918;SDS011;38793;52.690;6.812;2023-02-19T16:58:23;3.08;;;0.50;;
52918;SDS011;38793;52.690;6.812;2023-02-19T17:00:49;0.60;;;0.35;;
52918;SDS011;38793;52.690;6.812;2023-02-19T17:03:16;1.57;;;0.50;;
52918;SDS011;38793;52.690;6.812;2023-02-19T17:05:44;2.45;;;0.60;;
52918;SDS011;38793;52.690;6.812;2023-02-19T17:08:31;3.25;;;0.60;;
52918;SDS011;38793;52.690;6.812;2023-02-19T17:11:02;0.88;;;0.65;;
52918;SDS011;38793;52.690;6.812;2023-02-19T17:13:34;1.17;;;0.80;;
52918;SDS011;38793;52.690;6.812;2023-02-19T17:15:59;1.17;;;0.40;;
52918;SDS011;38793;52.690;6.812;2023-02-19T17:18:25;3.78;;;0.77;;
52918;SDS011;38793;52.690;6.812;2023-02-19T17:20:59;0.75;;;0.50;;
52918;SDS011;38793;52.690;6.812;2023-02-19T17:23:37;3.75;;;0.75;;
52918;SDS011;38793;52.690;6.812;2023-02-19T17:26:03;3.40;;;1.17;;
52918;SDS011;38793;52.690;6.812;2023-02-19T17:28:29;3.07;;;0.80;;
52918;SDS011;38793;52.690;6.812;2023-02-19T17:30:54;1.90;;;0.77;;
52918;SDS011;38793;52.690;6.812;2023-02-19T17:33:21;5.72;;;0.98;;
52918;SDS011;38793;52.690;6.812;2023-02-19T17:35:46;3.67;;;1.00;;
52918;SDS011;38793;52.690;6.812;2023-02-19T17:38:12;1.20;;;0.77;;